Time;durP1;ratioP1;P1;durP2;ratioP2;P2;SDS_P1;SDS_P2;PMS_P1;PMS_P2;Temp;Humidity;BMP_temperature;BMP_pressure;BME280_temperature;BME280_humidity;BME280_pressure;Samples;Min_cycle;Max_cycle;Signal;HPM_P1;HPM_P2
2022/10/18 00:01:29;;;;;;;3.88;2.30;;;16.60;99.90;;;;;;6254016;28;20124;-83
2022/10/18 00:04:30;;;;;;;6.93;2.50;;;16.60;99.90;;;;;;6254188;28;20048;-82
2022/10/18 00:07:32;;;;;;;15.00;4.22;;;16.70;99.90;;;;;;6258636;28;20045;-82
2022/10/18 00:10:34;;;;;;;11.23;3.33;;;16.70;99.90;;;;;;6251680;28;20057;-83
2022/10/18 00:13:37;;;;;;;19.75;4.78;;;16.80;99.90;;;;;;6250815;28;20049;-83
2022/10/18 00:16:39;;;;;;;8.57;2.63;;;16.80;99.90;;;;;;6252290;28;20415;-83
2022/10/18 00:19:41;;;;;;;12.95;2.70;;;16.70;99.90;;;;;;6251557;28;20049;-83
2022/10/18 00:22:42;;;;;;;9.38;3.05;;;16.80;99.90;;;;;;6252269;28;20045;-83
2022/10/18 00:25:44;;;;;;;13.00;3.58;;;16.80;99.90;;;;;;6251783;28;20077;-82
2022/10/18 00:28:51;;;;;;;11.48;2.80;;;16.90;99.90;;;;;;6251136;28;20061;-83
2022/10/18 00:31:52;;;;;;;11.38;2.60;;;16.90;99.90;;;;;;6251266;28;20491;-83
2022/10/18 00:34:54;;;;;;;17.63;3.30;;;17.00;99.90;;;;;;6251939;28;20046;-83
2022/10/18 00:37:56;;;;;;;8.73;2.75;;;17.00;99.90;;;;;;6250789;28;20053;-82
2022/10/18 00:40:57;;;;;;;6.43;2.47;;;17.10;99.90;;;;;;6235352;28;20056;-83
2022/10/18 00:44:02;;;;;;;12.48;2.78;;;17.10;99.90;;;;;;6126701;28;20054;-83
2022/10/18 00:47:08;;;;;;;13.82;2.33;;;17.10;99.90;;;;;;6127674;29;20059;-83
2022/10/18 00:50:10;;;;;;;8.60;2.75;;;17.20;99.90;;;;;;6126345;28;20062;-83
2022/10/18 00:53:16;;;;;;;13.27;2.92;;;17.20;99.90;;;;;;6126681;28;20047;-82
2022/10/18 00:56:18;;;;;;;11.25;2.70;;;17.20;99.90;;;;;;6127235;28;20048;-82
2022/10/18 00:59:22;;;;;;;9.85;2.55;;;17.20;99.90;;;;;;6126342;29;20478;-83
2022/10/18 01:02:25;;;;;;;12.90;3.33;;;17.30;99.90;;;;;;6125707;28;20055;-83
2022/10/18 01:05:27;;;;;;;11.43;3.00;;;17.40;99.90;;;;;;6126670;28;20048;-84
2022/10/18 01:08:38;;;;;;;5.28;3.13;;;17.50;99.90;;;;;;6125943;28;20494;-83
2022/10/18 01:11:58;;;;;;;15.15;2.70;;;17.50;99.90;;;;;;6127196;28;20078;-83
2022/10/18 01:15:06;;;;;;;12.38;2.60;;;17.50;99.90;;;;;;6128200;29;20497;-84
2022/10/18 01:18:16;;;;;;;9.80;3.20;;;17.50;99.90;;;;;;6127651;28;20055;-84
2022/10/18 01:21:31;;;;;;;16.30;5.60;;;17.50;99.90;;;;;;6130387;28;20055;-84
2022/10/18 01:24:55;;;;;;;12.32;3.28;;;17.60;99.90;;;;;;6130730;28;20044;-83
2022/10/18 01:28:02;;;;;;;11.70;2.50;;;17.60;99.90;;;;;;6130119;28;20517;-83
2022/10/18 01:31:11;;;;;;;15.70;2.95;;;17.60;99.90;;;;;;6131371;29;20062;-83
2022/10/18 01:34:16;;;;;;;8.43;3.05;;;17.60;99.90;;;;;;6130591;28;20067;-83
2022/10/18 01:37:21;;;;;;;12.88;2.72;;;17.60;99.90;;;;;;6129453;28;20430;-83
2022/10/18 01:40:25;;;;;;;13.18;3.17;;;17.60;99.90;;;;;;6130475;28;20044;-83
2022/10/18 01:43:30;;;;;;;17.63;4.05;;;17.60;99.90;;;;;;6130631;29;20051;-83
2022/10/18 01:46:33;;;;;;;13.18;2.92;;;17.50;99.90;;;;;;6131493;29;20052;-83
2022/10/18 01:49:35;;;;;;;15.18;2.65;;;17.40;99.90;;;;;;6130438;28;20048;-83
2022/10/18 01:52:48;;;;;;;14.10;3.90;;;17.40;99.90;;;;;;6129662;28;20046;-83
2022/10/18 01:55:57;;;;;;;17.08;3.78;;;17.30;99.90;;;;;;6129666;28;20057;-83
2022/10/18 01:59:13;;;;;;;32.80;4.50;;;17.30;99.90;;;;;;6129928;29;20059;-83
2022/10/18 02:02:28;;;;;;;10.98;3.78;;;17.30;99.90;;;;;;6128831;28;20071;-83
2022/10/18 02:05:39;;;;;;;19.08;3.15;;;17.40;99.90;;;;;;6127620;28;20055;-84
2022/10/18 02:08:45;;;;;;;6.85;2.58;;;17.30;99.90;;;;;;6130033;28;20056;-84
2022/10/18 02:11:50;;;;;;;7.78;2.22;;;17.10;99.90;;;;;;6132147;28;20063;-83
2022/10/18 02:14:53;;;;;;;6.10;2.50;;;17.00;99.90;;;;;;6131584;28;20055;-83
2022/10/18 02:17:57;;;;;;;6.22;2.38;;;17.00;99.90;;;;;;6130675;28;20089;-84
2022/10/18 02:21:02;;;;;;;18.35;3.22;;;17.00;99.90;;;;;;6132391;28;20044;-83
2022/10/18 02:24:06;;;;;;;14.52;2.75;;;17.00;99.90;;;;;;6128482;28;20066;-83
2022/10/18 02:27:09;;;;;;;15.90;4.80;;;16.90;99.90;;;;;;6127994;28;20505;-83
2022/10/18 02:30:12;;;;;;;15.02;3.75;;;16.90;99.90;;;;;;6127130;28;20059;-84
2022/10/18 02:33:19;;;;;;;8.13;2.38;;;16.80;99.90;;;;;;6127267;28;20055;-84
2022/10/18 02:36:26;;;;;;;14.60;4.30;;;16.70;99.90;;;;;;6128589;28;20081;-83
2022/10/18 02:39:32;;;;;;;14.07;2.65;;;16.70;99.90;;;;;;6127555;28;20409;-83
2022/10/18 02:42:35;;;;;;;13.75;2.90;;;16.70;99.90;;;;;;6128416;29;20414;-84
2022/10/18 02:45:38;;;;;;;15.88;3.35;;;16.60;99.90;;;;;;6128164;28;20056;-84
2022/10/18 02:48:41;;;;;;;15.38;3.35;;;16.60;99.90;;;;;;6127642;28;20178;-83
2022/10/18 02:51:42;;;;;;;8.93;3.20;;;16.60;99.90;;;;;;6130351;28;20174;-83
2022/10/18 02:54:44;;;;;;;10.80;3.05;;;16.50;99.90;;;;;;6129964;29;20052;-83
2022/10/18 02:57:46;;;;;;;9.43;2.53;;;16.50;99.90;;;;;;6128401;28;20048;-83
2022/10/18 03:00:49;;;;;;;9.00;2.17;;;16.50;99.90;;;;;;6127535;28;20052;-84
2022/10/18 03:03:53;;;;;;;19.42;3.83;;;16.40;99.90;;;;;;6127761;28;20059;-83
2022/10/18 03:06:54;;;;;;;25.98;4.38;;;16.40;99.90;;;;;;6126205;29;20062;-83
2022/10/18 03:09:56;;;;;;;7.68;2.72;;;16.40;99.90;;;;;;6125756;28;20058;-83
2022/10/18 03:12:58;;;;;;;4.47;2.35;;;16.40;99.90;;;;;;6131194;28;20051;-84
2022/10/18 03:16:00;;;;;;;15.27;3.05;;;16.30;99.90;;;;;;6131422;28;20126;-84
2022/10/18 03:19:03;;;;;;;10.40;2.35;;;16.30;99.90;;;;;;6129035;28;20059;-83
2022/10/18 03:22:05;;;;;;;9.52;3.70;;;16.20;99.90;;;;;;6127167;28;20048;-83
2022/10/18 03:25:07;;;;;;;11.20;3.20;;;16.20;99.90;;;;;;6128152;28;20126;-83
2022/10/18 03:28:09;;;;;;;16.05;2.95;;;16.20;99.90;;;;;;6137442;28;20126;-82
2022/10/18 03:31:10;;;;;;;10.63;2.58;;;16.10;99.90;;;;;;6126995;28;20074;-83
2022/10/18 03:34:14;;;;;;;10.27;3.03;;;15.90;99.90;;;;;;6126601;28;20051;-83
2022/10/18 03:37:16;;;;;;;8.23;2.47;;;15.90;99.90;;;;;;6125155;28;20078;-84
2022/10/18 03:40:18;;;;;;;11.15;3.65;;;15.80;99.90;;;;;;6126591;28;20051;-83
2022/10/18 03:43:20;;;;;;;14.70;3.08;;;15.80;99.90;;;;;;6126944;28;20509;-82
2022/10/18 03:46:21;;;;;;;11.40;3.08;;;15.80;99.90;;;;;;6126875;28;20052;-82
2022/10/18 03:49:24;;;;;;;5.40;2.38;;;15.70;99.90;;;;;;6126659;28;20044;-82
2022/10/18 03:52:26;;;;;;;12.60;3.33;;;15.70;99.90;;;;;;6126564;28;20051;-83
2022/10/18 03:55:27;;;;;;;10.63;3.25;;;15.80;99.90;;;;;;6127227;28;20059;-82
2022/10/18 03:58:29;;;;;;;10.10;3.50;;;15.90;99.90;;;;;;6125279;28;20067;-82
2022/10/18 04:01:31;;;;;;;10.98;4.22;;;16.10;99.90;;;;;;6125254;28;20055;-84
2022/10/18 04:04:34;;;;;;;10.60;3.42;;;16.20;99.90;;;;;;6124972;28;20047;-82
2022/10/18 04:07:36;;;;;;;4.25;2.78;;;16.30;99.90;;;;;;6124908;28;20067;-82
2022/10/18 04:10:38;;;;;;;12.38;3.00;;;16.40;99.90;;;;;;6125991;29;20505;-83
2022/10/18 04:13:40;;;;;;;14.57;3.22;;;16.50;99.90;;;;;;6125012;28;20129;-83
2022/10/18 04:16:41;;;;;;;10.57;3.08;;;16.60;99.90;;;;;;6125050;28;20044;-82
2022/10/18 04:19:44;;;;;;;15.85;2.90;;;16.70;99.90;;;;;;6125216;28;20048;-83
2022/10/18 04:22:48;;;;;;;10.57;3.08;;;16.80;99.90;;;;;;6126134;28;20063;-83
2022/10/18 04:25:50;;;;;;;9.98;2.63;;;16.90;99.90;;;;;;6125755;28;20047;-83
2022/10/18 04:28:51;;;;;;;14.80;3.33;;;16.90;99.90;;;;;;6125867;28;20056;-83
2022/10/18 04:31:53;;;;;;;13.55;3.83;;;16.90;99.90;;;;;;6126337;28;20039;-83
2022/10/18 04:34:56;;;;;;;7.25;3.58;;;16.90;99.90;;;;;;6125825;29;20055;-82
2022/10/18 04:37:58;;;;;;;12.52;2.72;;;16.90;99.90;;;;;;6125143;28;20047;-83
2022/10/18 04:40:59;;;;;;;6.95;2.70;;;16.90;99.90;;;;;;6125567;28;20048;-83
2022/10/18 04:44:01;;;;;;;17.88;3.00;;;16.90;99.90;;;;;;6124913;28;20055;-82
2022/10/18 04:47:03;;;;;;;13.57;2.47;;;16.90;99.90;;;;;;6125388;28;20061;-83
2022/10/18 04:50:06;;;;;;;14.15;4.38;;;16.90;99.90;;;;;;6124342;28;20071;-83
2022/10/18 04:53:08;;;;;;;11.68;3.90;;;17.10;99.90;;;;;;6125321;28;20048;-82
2022/10/18 04:56:10;;;;;;;8.02;2.42;;;17.20;99.90;;;;;;6124742;28;20048;-83
2022/10/18 04:59:12;;;;;;;15.35;3.03;;;17.00;99.90;;;;;;6124347;29;20047;-83
2022/10/18 05:02:13;;;;;;;10.57;2.70;;;17.00;99.90;;;;;;6124016;28;20050;-83
2022/10/18 05:05:16;;;;;;;7.10;3.28;;;16.90;99.90;;;;;;6125327;28;20052;-83
2022/10/18 05:08:18;;;;;;;17.70;3.22;;;16.90;99.90;;;;;;6124165;28;20054;-82
2022/10/18 05:11:20;;;;;;;8.77;2.40;;;16.90;99.90;;;;;;6125713;28;20058;-84
2022/10/18 05:14:21;;;;;;;10.77;2.90;;;17.00;99.90;;;;;;6123907;28;20060;-83
2022/10/18 05:17:23;;;;;;;8.68;2.00;;;16.90;99.90;;;;;;6124378;28;20051;-83
2022/10/18 05:20:26;;;;;;;7.32;2.50;;;16.80;99.90;;;;;;6124170;28;20051;-82
2022/10/18 05:23:28;;;;;;;9.75;2.95;;;16.80;99.90;;;;;;6125511;29;20058;-82
2022/10/18 05:26:29;;;;;;;14.63;2.80;;;16.90;99.90;;;;;;6124928;28;20056;-82
2022/10/18 05:29:31;;;;;;;10.75;3.20;;;17.00;99.90;;;;;;6125658;28;20056;-82
2022/10/18 05:32:32;;;;;;;5.85;2.53;;;17.10;99.90;;;;;;6124701;28;20059;-82
2022/10/18 05:35:36;;;;;;;14.05;2.90;;;17.10;99.90;;;;;;6125209;28;20056;-82
2022/10/18 05:38:40;;;;;;;6.47;2.75;;;17.00;99.90;;;;;;6125893;29;20052;-83
2022/10/18 05:41:42;;;;;;;7.53;2.75;;;17.00;99.90;;;;;;6124022;28;20047;-82
2022/10/18 05:44:44;;;;;;;6.05;3.08;;;17.00;99.90;;;;;;6123848;28;20051;-82
2022/10/18 05:47:45;;;;;;;10.63;3.30;;;17.10;99.90;;;;;;6123797;28;20074;-82
2022/10/18 05:50:48;;;;;;;15.02;3.80;;;17.10;99.90;;;;;;6124814;28;20052;-82
2022/10/18 05:53:51;;;;;;;36.38;4.90;;;17.20;99.90;;;;;;6125386;28;20040;-82
2022/10/18 05:56:53;;;;;;;16.80;3.72;;;17.30;99.90;;;;;;6126721;28;20131;-82
2022/10/18 05:59:55;;;;;;;12.02;3.55;;;17.30;99.90;;;;;;6125817;28;20051;-82
2022/10/18 06:02:57;;;;;;;25.40;7.78;;;17.40;99.90;;;;;;6128498;28;20056;-83
2022/10/18 06:06:01;;;;;;;12.23;4.22;;;17.40;99.90;;;;;;6128591;28;20048;-82
2022/10/18 06:09:04;;;;;;;14.38;4.35;;;17.50;99.90;;;;;;6128020;28;20540;-83
2022/10/18 06:12:07;;;;;;;19.80;4.47;;;17.70;99.90;;;;;;6127459;28;20371;-83
2022/10/18 06:15:09;;;;;;;7.70;3.97;;;17.70;99.90;;;;;;6128744;29;20134;-83
2022/10/18 06:18:11;;;;;;;9.45;3.40;;;17.70;99.90;;;;;;6127438;28;20051;-83
2022/10/18 06:21:14;;;;;;;8.18;2.78;;;17.70;99.90;;;;;;6128415;28;20421;-84
2022/10/18 06:24:17;;;;;;;12.68;3.08;;;17.80;99.90;;;;;;6127577;28;20044;-84
2022/10/18 06:27:18;;;;;;;12.20;3.13;;;17.90;99.90;;;;;;6128254;29;20051;-84
2022/10/18 06:30:20;;;;;;;13.07;3.15;;;17.90;99.90;;;;;;6128904;28;20063;-84
2022/10/18 06:33:22;;;;;;;9.30;2.40;;;18.00;99.90;;;;;;6129867;28;20051;-84
2022/10/18 06:36:25;;;;;;;5.22;2.60;;;18.00;99.90;;;;;;6130799;28;20051;-83
2022/10/18 06:39:27;;;;;;;7.15;2.50;;;18.00;99.90;;;;;;6130817;28;20486;-83
2022/10/18 06:42:30;;;;;;;9.25;2.97;;;18.10;99.90;;;;;;6133096;29;20059;-83
2022/10/18 06:45:32;;;;;;;6.50;3.15;;;18.10;99.90;;;;;;6126808;28;20061;-83
2022/10/18 06:48:34;;;;;;;15.13;3.40;;;18.20;99.90;;;;;;6126219;28;20047;-83
2022/10/18 06:51:37;;;;;;;21.15;3.65;;;18.20;99.90;;;;;;6126638;28;20098;-84
2022/10/18 06:54:39;;;;;;;19.23;3.17;;;18.30;99.90;;;;;;6127566;29;20472;-83
2022/10/18 06:57:41;;;;;;;5.32;2.63;;;18.20;99.90;;;;;;6126885;28;20429;-83
2022/10/18 07:00:44;;;;;;;13.18;3.20;;;18.20;99.90;;;;;;6126785;28;20517;-84
2022/10/18 07:03:47;;;;;;;9.98;3.70;;;18.20;99.90;;;;;;6128732;28;20182;-83
2022/10/18 07:06:50;;;;;;;10.60;3.60;;;18.20;99.90;;;;;;6131125;28;20056;-84
2022/10/18 07:09:51;;;;;;;15.00;3.97;;;18.20;99.90;;;;;;6128365;28;20050;-84
2022/10/18 07:12:53;;;;;;;9.50;3.33;;;18.10;99.90;;;;;;6126917;28;20052;-84
2022/10/18 07:16:06;;;;;;;12.10;3.45;;;18.20;99.90;;;;;;6126626;28;20476;-84
2022/10/18 07:19:07;;;;;;;6.63;3.10;;;18.20;99.90;;;;;;6127135;29;20071;-84
2022/10/18 07:22:10;;;;;;;8.57;3.78;;;18.20;99.90;;;;;;6126935;28;20058;-85
2022/10/18 07:25:12;;;;;;;12.15;3.47;;;18.30;99.90;;;;;;6127027;28;20055;-84
2022/10/18 07:28:14;;;;;;;7.18;4.70;;;18.30;99.90;;;;;;6100864;28;20051;-84
2022/10/18 07:31:16;;;;;;;8.88;3.67;;;18.30;99.90;;;;;;6126118;28;20059;-86
2022/10/18 07:34:17;;;;;;;8.98;3.72;;;18.40;99.90;;;;;;6125914;28;20461;-84
2022/10/18 07:37:20;;;;;;;9.00;3.58;;;18.40;99.90;;;;;;6153893;28;20057;-83
2022/10/18 07:40:22;;;;;;;14.95;3.65;;;18.50;99.90;;;;;;6212221;28;20037;-84
2022/10/18 07:43:24;;;;;;;8.55;4.00;;;18.60;99.90;;;;;;6138809;28;20055;-83
2022/10/18 07:46:26;;;;;;;8.00;4.13;;;18.50;99.90;;;;;;6125266;28;20054;-83
2022/10/18 07:49:27;;;;;;;5.35;3.20;;;18.40;99.90;;;;;;6124910;28;20055;-83
2022/10/18 07:52:30;;;;;;;12.90;3.92;;;18.20;99.90;;;;;;6125608;28;20043;-83
2022/10/18 07:55:32;;;;;;;5.75;3.53;;;18.10;99.90;;;;;;6132220;28;20054;-83
2022/10/18 07:58:34;;;;;;;8.40;3.47;;;18.10;99.90;;;;;;6123938;28;20052;-84
2022/10/18 08:01:36;;;;;;;12.40;3.45;;;18.10;99.90;;;;;;6124116;28;20056;-85
2022/10/18 08:04:37;;;;;;;8.60;3.63;;;18.20;99.90;;;;;;6124060;28;20048;-84
2022/10/18 08:07:40;;;;;;;5.82;3.45;;;18.30;99.90;;;;;;6156039;28;20411;-84
2022/10/18 08:10:42;;;;;;;4.50;3.03;;;18.40;99.90;;;;;;6200060;28;20514;-84
2022/10/18 08:13:44;;;;;;;13.18;3.38;;;18.50;99.90;;;;;;6249224;28;20053;-84
2022/10/18 08:16:46;;;;;;;8.68;4.32;;;18.60;99.90;;;;;;6248942;28;20049;-83
2022/10/18 08:19:47;;;;;;;6.72;3.97;;;18.60;99.90;;;;;;6249011;28;20068;-83
2022/10/18 08:22:51;;;;;;;6.50;3.50;;;18.60;99.90;;;;;;6248221;28;20056;-84
2022/10/18 08:25:53;;;;;;;14.70;4.60;;;18.70;99.90;;;;;;6247656;28;20042;-83
2022/10/18 08:28:54;;;;;;;5.35;3.85;;;19.00;99.90;;;;;;6248279;28;20046;-84
2022/10/18 08:31:56;;;;;;;9.43;3.85;;;19.70;99.90;;;;;;6248051;28;20068;-83
2022/10/18 08:34:58;;;;;;;6.50;3.22;;;20.30;99.90;;;;;;6249012;28;20518;-83
2022/10/18 08:38:01;;;;;;;7.10;3.03;;;20.60;99.90;;;;;;6200652;28;20045;-84
2022/10/18 08:41:20;;;;;;;11.48;2.92;;;20.80;99.90;;;;;;6220597;28;20045;-86
2022/10/18 08:44:24;;;;;;;8.05;2.40;;;21.30;99.90;;;;;;6247625;28;20037;-84
2022/10/18 08:47:33;;;;;;;4.82;3.30;;;22.10;99.90;;;;;;6248516;28;20076;-84
2022/10/18 08:50:37;;;;;;;9.93;2.38;;;23.20;99.90;;;;;;6247996;28;20049;-85
2022/10/18 08:53:49;;;;;;;3.95;1.73;;;24.20;99.90;;;;;;6247768;28;20048;-85
2022/10/18 08:56:59;;;;;;;5.95;2.08;;;24.80;99.90;;;;;;6142182;28;20052;-86
2022/10/18 09:00:02;;;;;;;8.30;4.18;;;25.40;99.90;;;;;;6122801;28;20063;-83
2022/10/18 09:03:17;;;;;;;12.25;2.72;;;25.80;99.00;;;;;;6123528;28;20048;-86
2022/10/18 09:06:24;;;;;;;6.38;1.83;;;25.60;97.60;;;;;;6122572;28;20059;-85
2022/10/18 09:09:39;;;;;;;5.10;1.88;;;25.00;97.50;;;;;;6194452;28;20388;-84
2022/10/18 09:12:55;;;;;;;5.15;1.83;;;24.30;98.10;;;;;;6246573;28;20119;-85
2022/10/18 09:15:59;;;;;;;14.77;2.92;;;23.90;98.60;;;;;;6247871;28;20052;-87
2022/10/18 09:19:08;;;;;;;5.15;2.10;;;23.60;98.80;;;;;;6247213;28;20053;-86
2022/10/18 09:22:14;;;;;;;8.00;2.72;;;23.20;99.00;;;;;;6246335;28;20396;-86
2022/10/18 09:25:20;;;;;;;7.97;2.75;;;22.90;99.40;;;;;;6246550;28;20045;-87
2022/10/18 09:28:48;;;;;;;8.23;3.08;;;22.80;99.70;;;;;;6246801;28;20496;-88
2022/10/18 09:31:56;;;;;;;4.43;2.50;;;22.70;99.80;;;;;;6246725;28;20069;-86
2022/10/18 09:35:01;;;;;;;7.70;3.30;;;22.20;99.80;;;;;;6247607;28;20052;-86
2022/10/18 09:38:05;;;;;;;3.45;2.17;;;22.40;99.90;;;;;;6209289;28;20516;-86
2022/10/18 09:41:15;;;;;;;5.05;2.35;;;22.30;99.90;;;;;;6150955;28;20079;-87
2022/10/18 09:44:21;;;;;;;8.88;2.58;;;22.40;99.90;;;;;;6126397;28;20059;-86
2022/10/18 09:47:25;;;;;;;5.03;2.50;;;22.50;99.90;;;;;;6126586;29;20058;-87
2022/10/18 09:50:32;;;;;;;7.05;2.03;;;22.80;99.90;;;;;;6125997;28;20066;-85
2022/10/18 09:53:39;;;;;;;9.48;2.28;;;23.20;99.90;;;;;;6126271;28;20055;-85
2022/10/18 09:56:48;;;;;;;7.70;1.38;;;23.60;99.10;;;;;;6126147;28;20058;-85
2022/10/18 09:59:51;;;;;;;3.20;2.10;;;23.70;98.80;;;;;;6127057;28;20047;-87
2022/10/18 10:02:52;;;;;;;5.65;1.70;;;23.90;98.30;;;;;;6126868;28;20440;-86
2022/10/18 10:06:03;;;;;;;6.90;2.70;;;24.20;98.20;;;;;;6211966;28;20459;-86
2022/10/18 10:09:08;;;;;;;6.45;1.77;;;24.80;97.60;;;;;;6212416;28;20043;-86
2022/10/18 10:12:29;;;;;;;7.90;1.55;;;25.20;96.50;;;;;;6207464;28;20060;-86
2022/10/18 10:15:34;;;;;;;8.68;2.20;;;25.80;96.30;;;;;;6226636;28;20046;-85
2022/10/18 10:18:38;;;;;;;4.63;1.50;;;26.40;94.80;;;;;;6226391;28;20053;-86
2022/10/18 10:21:40;;;;;;;6.85;2.28;;;26.90;94.20;;;;;;6207552;28;20508;-87
2022/10/18 10:24:48;;;;;;;3.10;1.48;;;27.50;93.30;;;;;;6202447;28;20428;-87
2022/10/18 10:27:51;;;;;;;5.00;1.75;;;27.80;92.00;;;;;;6205604;28;20050;-88
2022/10/18 10:30:52;;;;;;;4.30;1.70;;;28.20;91.30;;;;;;6225965;28;20073;-85
2022/10/18 10:34:00;;;;;;;1.90;1.45;;;28.50;90.40;;;;;;6226047;28;20041;-85
2022/10/18 10:37:02;;;;;;;5.28;1.73;;;28.60;88.60;;;;;;6213587;28;20058;-88
2022/10/18 10:40:23;;;;;;;3.35;1.73;;;28.70;87.80;;;;;;6201077;28;20058;-84
2022/10/18 10:43:29;;;;;;;6.80;1.65;;;28.90;87.00;;;;;;6201806;28;20050;-84
2022/10/18 10:46:36;;;;;;;4.70;1.40;;;29.30;84.40;;;;;;6200798;28;20173;-85
2022/10/18 10:49:43;;;;;;;5.97;1.25;;;29.50;83.30;;;;;;6200200;28;20054;-85
2022/10/18 10:52:48;;;;;;;5.72;1.67;;;29.70;81.40;;;;;;6210686;28;20056;-85
2022/10/18 10:55:54;;;;;;;3.28;1.48;;;29.70;80.20;;;;;;6225681;28;20057;-85
2022/10/18 10:59:06;;;;;;;7.90;1.70;;;29.90;79.70;;;;;;6223843;28;20506;-87
2022/10/18 11:02:20;;;;;;;5.13;1.30;;;30.30;78.20;;;;;;6203394;28;20125;-86
2022/10/18 11:05:24;;;;;;;6.40;1.38;;;30.50;76.90;;;;;;6200329;28;20042;-86
2022/10/18 11:08:31;;;;;;;3.60;1.02;;;30.70;76.10;;;;;;6199936;28;20043;-86
2022/10/18 11:11:50;;;;;;;6.05;1.25;;;31.00;74.60;;;;;;6200777;28;20046;-87
2022/10/18 11:14:59;;;;;;;2.67;1.00;;;31.40;73.20;;;;;;6225708;28;20097;-86
2022/10/18 11:18:10;;;;;;;4.10;1.65;;;31.80;71.90;;;;;;6224015;28;20045;-87
2022/10/18 11:21:16;;;;;;;5.93;1.10;;;32.00;70.10;;;;;;6224592;28;20046;-86
2022/10/18 11:24:24;;;;;;;;;;;32.20;69.10;;;;;;6224548;28;20046;-86
2022/10/18 11:27:30;;;;;;;3.38;1.15;;;32.30;69.20;;;;;;6224500;28;20438;-86
2022/10/18 11:30:50;;;;;;;5.25;1.65;;;32.00;68.40;;;;;;6224147;28;20515;-85
2022/10/18 11:34:09;;;;;;;4.93;1.40;;;31.40;68.00;;;;;;6224139;28;20049;-84
2022/10/18 11:37:27;;;;;;;4.25;1.33;;;30.90;68.70;;;;;;6223492;28;20046;-84
2022/10/18 11:40:50;;;;;;;5.47;1.20;;;30.40;69.10;;;;;;6223506;28;20050;-84
2022/10/18 11:43:55;;;;;;;4.50;1.20;;;29.80;70.00;;;;;;6223505;28;20045;-84
2022/10/18 11:47:06;;;;;;;1.95;1.00;;;29.50;70.90;;;;;;6224104;28;20672;-85
2022/10/18 11:50:19;;;;;;;6.22;1.23;;;29.00;71.80;;;;;;6223207;28;20045;-85
2022/10/18 11:53:28;;;;;;;4.97;1.33;;;28.60;73.00;;;;;;6223547;28;20062;-84
2022/10/18 11:56:38;;;;;;;10.07;1.20;;;28.40;73.70;;;;;;6223608;28;20049;-85
2022/10/18 11:59:53;;;;;;;5.97;0.95;;;28.40;74.10;;;;;;6221076;28;20522;-84
2022/10/18 12:03:20;;;;;;;5.22;1.30;;;28.20;74.70;;;;;;6224042;28;20057;-85
2022/10/18 12:06:26;;;;;;;5.03;1.60;;;28.20;75.70;;;;;;6223676;28;20049;-85
2022/10/18 12:09:32;;;;;;;5.45;1.58;;;28.50;75.70;;;;;;6222829;28;20180;-85
2022/10/18 12:12:40;;;;;;;4.53;1.20;;;28.50;75.00;;;;;;6222963;28;20038;-84
2022/10/18 12:15:43;;;;;;;2.72;1.02;;;28.40;74.90;;;;;;6223238;28;20050;-86
2022/10/18 12:18:54;;;;;;;3.55;1.20;;;28.30;74.80;;;;;;6228041;28;20046;-87
2022/10/18 12:22:02;;;;;;;2.15;0.95;;;28.00;75.10;;;;;;6226212;28;20046;-86
2022/10/18 12:25:06;;;;;;;;;;;27.90;75.20;;;;;;6223525;28;20042;-85
2022/10/18 12:28:16;;;;;;;3.20;1.10;;;27.70;75.70;;;;;;6223275;28;20402;-85
2022/10/18 12:31:24;;;;;;;7.45;1.48;;;27.60;75.80;;;;;;6223280;28;20050;-87
2022/10/18 12:34:30;;;;;;;;;;;27.60;76.20;;;;;;6222878;28;20061;-86
2022/10/18 12:38:04;;;;;;;6.65;1.30;;;27.70;75.90;;;;;;6222096;28;19928;-85
2022/10/18 12:41:06;;;;;;;2.65;1.20;;;27.60;75.90;;;;;;6218007;28;20050;-84
2022/10/18 12:44:19;;;;;;;8.77;1.42;;;27.50;76.30;;;;;;6223299;28;20506;-84
2022/10/18 12:47:23;;;;;;;3.78;1.52;;;27.50;76.60;;;;;;6224048;28;20049;-85
2022/10/18 12:50:35;;;;;;;3.80;0.88;;;27.40;76.60;;;;;;6223451;28;20054;-84
2022/10/18 12:53:38;;;;;;;3.13;0.98;;;27.40;76.80;;;;;;6224046;28;20048;-83
2022/10/18 12:56:41;;;;;;;2.97;0.93;;;27.30;76.50;;;;;;6227143;28;20049;-83
2022/10/18 12:59:43;;;;;;;2.05;0.75;;;27.20;77.10;;;;;;6224314;28;20057;-83
2022/10/18 13:02:45;;;;;;;3.45;1.20;;;27.10;77.00;;;;;;6225142;28;20053;-83
2022/10/18 13:05:57;;;;;;;3.85;0.75;;;26.90;77.50;;;;;;6226789;28;20042;-82
2022/10/18 13:09:17;;;;;;;2.10;1.10;;;26.80;77.80;;;;;;6222764;28;20050;-83
2022/10/18 13:12:58;;;;;;;3.28;1.17;;;26.60;78.30;;;;;;6230996;28;20053;-83
2022/10/18 13:16:10;;;;;;;3.55;1.73;;;26.70;78.60;;;;;;6227497;28;20530;-84
2022/10/18 13:19:21;;;;;;;4.40;0.90;;;26.60;78.60;;;;;;6232457;28;20088;-83
2022/10/18 13:22:40;;;;;;;3.95;1.27;;;26.40;78.70;;;;;;6229127;28;20057;-83
2022/10/18 13:26:02;;;;;;;2.33;1.13;;;26.20;79.50;;;;;;6227243;28;20049;-85
2022/10/18 13:29:36;;;;;;;2.70;0.95;;;26.10;79.90;;;;;;6227085;28;20132;-83
2022/10/18 13:32:50;;;;;;;3.05;1.00;;;26.00;80.40;;;;;;6227532;28;20042;-83
2022/10/18 13:35:55;;;;;;;4.78;1.63;;;25.90;80.80;;;;;;6226776;28;20139;-83
2022/10/18 13:39:04;;;;;;;8.70;1.38;;;25.70;81.40;;;;;;6226963;28;20050;-83
2022/10/18 13:42:28;;;;;;;3.22;0.80;;;25.70;81.70;;;;;;6226825;28;20053;-83
2022/10/18 13:45:45;;;;;;;5.20;0.73;;;25.70;81.70;;;;;;6227099;28;20515;-84
2022/10/18 13:48:53;;;;;;;1.77;0.88;;;25.70;81.50;;;;;;6226825;28;20511;-85
2022/10/18 13:52:05;;;;;;;2.92;0.70;;;25.80;81.20;;;;;;6233471;28;20132;-84
2022/10/18 13:55:37;;;;;;;6.85;2.00;;;25.70;81.10;;;;;;6233967;28;20057;-84
2022/10/18 13:58:49;;;;;;;2.28;1.42;;;25.70;81.60;;;;;;6231438;28;20061;-84
2022/10/18 14:02:04;;;;;;;4.18;2.45;;;25.70;81.40;;;;;;6229019;28;20053;-84
2022/10/18 14:05:28;;;;;;;2.80;1.38;;;25.70;81.50;;;;;;6230256;28;20072;-83
2022/10/18 14:08:37;;;;;;;2.13;1.45;;;25.60;81.70;;;;;;6221042;28;20042;-84
2022/10/18 14:11:45;;;;;;;1.95;1.67;;;25.60;81.80;;;;;;6229519;28;20050;-83
2022/10/18 14:15:19;;;;;;;16.20;3.55;;;25.50;81.90;;;;;;6232015;28;20050;-84
2022/10/18 14:18:29;;;;;;;3.72;1.67;;;25.50;82.10;;;;;;6205503;28;20061;-84
2022/10/18 14:21:39;;;;;;;2.17;1.38;;;25.50;81.90;;;;;;6230510;28;20057;-84
2022/10/18 14:24:56;;;;;;;3.60;2.20;;;25.40;82.00;;;;;;6228496;28;20049;-85
2022/10/18 14:28:12;;;;;;;1.42;1.17;;;25.40;82.20;;;;;;6232317;28;20050;-83
2022/10/18 14:31:16;;;;;;;2.30;1.70;;;25.30;82.30;;;;;;6234895;28;20104;-83
2022/10/18 14:34:20;;;;;;;6.15;1.60;;;25.30;82.20;;;;;;6236326;28;20065;-84
2022/10/18 14:37:27;;;;;;;5.30;1.40;;;25.20;82.50;;;;;;6234865;28;20414;-84
2022/10/18 14:40:34;;;;;;;1.90;1.60;;;25.10;82.70;;;;;;6227467;28;20134;-84
2022/10/18 14:43:36;;;;;;;2.38;1.67;;;25.10;83.00;;;;;;6234422;28;20069;-84
2022/10/18 14:46:50;;;;;;;5.22;1.85;;;25.10;83.00;;;;;;6210791;28;20053;-84
2022/10/18 14:49:57;;;;;;;3.00;1.55;;;25.00;83.30;;;;;;6208272;28;20105;-84
2022/10/18 14:53:08;;;;;;;3.85;2.10;;;25.00;83.40;;;;;;6206736;28;20049;-85
2022/10/18 14:56:21;;;;;;;1.85;1.30;;;24.80;83.60;;;;;;6213015;28;20510;-83
2022/10/18 14:59:25;;;;;;;7.65;2.15;;;24.80;84.20;;;;;;6230459;28;20157;-85
2022/10/18 15:02:29;;;;;;;2.65;1.63;;;24.70;84.80;;;;;;6228300;28;20049;-84
2022/10/18 15:05:32;;;;;;;6.20;2.08;;;24.60;85.40;;;;;;6228686;28;20459;-83
2022/10/18 15:08:39;;;;;;;3.22;1.90;;;24.60;85.90;;;;;;6233562;28;20057;-84
2022/10/18 15:11:43;;;;;;;4.75;1.65;;;24.50;86.50;;;;;;6228945;28;20050;-84
2022/10/18 15:14:46;;;;;;;8.88;2.40;;;24.50;87.20;;;;;;6230092;28;20054;-84
2022/10/18 15:17:49;;;;;;;4.43;2.05;;;24.30;87.80;;;;;;6230183;28;20049;-84
2022/10/18 15:21:19;;;;;;;6.10;2.88;;;24.30;88.60;;;;;;6230221;28;20128;-84
2022/10/18 15:25:05;;;;;;;5.18;2.65;;;24.20;89.50;;;;;;6230362;28;20042;-84
2022/10/18 15:28:25;;;;;;;10.20;3.03;;;24.20;90.00;;;;;;6229691;28;20045;-83
2022/10/18 15:31:28;;;;;;;6.30;2.00;;;24.00;90.20;;;;;;6232644;28;20049;-84
2022/10/18 15:34:31;;;;;;;20.23;2.63;;;24.00;90.40;;;;;;6231000;28;20136;-84
2022/10/18 15:37:42;;;;;;;8.23;3.65;;;23.90;90.70;;;;;;6229986;28;20052;-84
2022/10/18 15:40:44;;;;;;;5.57;2.10;;;23.70;91.10;;;;;;6201247;28;20058;-84
2022/10/18 15:43:46;;;;;;;6.53;2.65;;;23.60;91.50;;;;;;6195914;28;20054;-84
2022/10/18 15:46:52;;;;;;;4.40;2.40;;;23.50;91.80;;;;;;6217202;28;20060;-84
2022/10/18 15:49:57;;;;;;;5.28;2.72;;;23.40;92.30;;;;;;6227382;28;20096;-84
2022/10/18 15:53:29;;;;;;;4.90;2.72;;;23.40;92.50;;;;;;6227847;28;20058;-84
2022/10/18 15:56:33;;;;;;;5.68;2.80;;;23.30;92.90;;;;;;6225175;28;20169;-85
2022/10/18 16:00:02;;;;;;;4.03;3.22;;;23.30;93.00;;;;;;6227546;28;20053;-85
2022/10/18 16:06:23;;;;;;;3.83;3.17;;;23.20;92.90;;;;;;6200026;28;20049;-84
2022/10/18 16:09:34;;;;;;;6.63;2.58;;;23.10;92.80;;;;;;6221978;28;20050;-84